Addison, Illinois
Current Conditions -  °F | °C
As of 8:51 PM on Monday 20 Oct 2014 (Local Time) from KORD Reporting Station
Broken Clouds Broken Clouds  
Wind Chill: 54°   Ceiling: 6000
Heat Index: 54°   Visibility: 10mi
Dew Point: 41°   Wind: 12mph
Humidity: 62%   Direction: 360°N
Pressure: 29.98"   Gusts: NA
Location:  41.93°N, 87.99°W
Report Text: KORD 210151Z 36010KT 10SM BKN060 12/05 A2998 RMK AO2 SLP154 T01220050 $
Loading
Personal Weather Stations






























Interactive Weather Map
Tropical Storm Tracking
New forecast layout! Learn more

10-Day Weather Forecast

Advertisements
Track Severe Weather on mobile